createdAt,value
2023-03-29T00:00:18.748Z,0.00
2023-03-29T00:01:35.725Z,0.00
2023-03-29T00:02:18.700Z,0.00
2023-03-29T00:03:18.924Z,0.00
2023-03-29T00:04:18.717Z,0.00
2023-03-29T00:05:18.676Z,0.00
2023-03-29T00:06:18.634Z,0.00
2023-03-29T00:07:18.633Z,0.00
2023-03-29T00:08:18.617Z,0.00
2023-03-29T00:09:18.613Z,0.00
2023-03-29T00:10:18.622Z,0.00
2023-03-29T00:11:18.585Z,0.00
2023-03-29T00:12:18.615Z,0.00
2023-03-29T00:13:18.587Z,0.00
2023-03-29T00:14:18.602Z,0.00
2023-03-29T00:15:18.557Z,0.00
2023-03-29T00:16:18.587Z,0.00
2023-03-29T00:17:18.524Z,0.00
2023-03-29T00:18:18.530Z,0.00
2023-03-29T00:19:18.528Z,0.00
2023-03-29T00:20:18.514Z,0.00
2023-03-29T00:21:18.555Z,0.00
2023-03-29T00:22:18.478Z,0.00
2023-03-29T00:23:18.470Z,0.00
2023-03-29T00:24:18.496Z,0.00
2023-03-29T00:25:18.455Z,0.00
2023-03-29T00:26:18.474Z,0.00
2023-03-29T00:27:18.521Z,0.00
2023-03-29T00:28:18.441Z,0.00
2023-03-29T00:29:18.432Z,0.00
2023-03-29T00:30:18.435Z,0.00
2023-03-29T00:31:18.438Z,0.00
2023-03-29T00:32:18.420Z,0.00
2023-03-29T00:33:18.404Z,0.00
2023-03-29T00:34:18.402Z,0.00
2023-03-29T00:35:18.364Z,0.00
2023-03-29T00:36:18.366Z,0.00
2023-03-29T00:37:18.396Z,0.00
2023-03-29T00:38:18.387Z,0.00
2023-03-29T00:39:18.336Z,0.00
2023-03-29T00:40:18.321Z,0.00
2023-03-29T00:41:18.299Z,0.00
2023-03-29T00:42:18.320Z,0.00
2023-03-29T00:43:18.312Z,0.00
2023-03-29T00:44:18.261Z,0.00
2023-03-29T00:45:18.261Z,0.00
2023-03-29T00:46:18.325Z,0.00
2023-03-29T00:47:18.262Z,0.00
2023-03-29T00:48:18.240Z,0.00
2023-03-29T00:49:18.259Z,0.00
2023-03-29T00:50:18.203Z,0.00
2023-03-29T00:51:18.218Z,0.00
2023-03-29T00:52:18.201Z,0.00
2023-03-29T00:53:18.241Z,0.00
2023-03-29T00:54:18.189Z,0.00
2023-03-29T00:55:18.177Z,0.00
2023-03-29T00:56:18.149Z,0.00
2023-03-29T00:57:18.167Z,0.00
2023-03-29T00:58:18.158Z,0.00
2023-03-29T00:59:18.136Z,0.00
2023-03-29T01:00:18.148Z,0.00
2023-03-29T01:01:18.106Z,0.00
2023-03-29T01:02:18.137Z,0.00
2023-03-29T01:03:18.146Z,0.00
2023-03-29T01:04:18.121Z,0.00
2023-03-29T01:05:18.079Z,0.00
2023-03-29T01:06:18.087Z,0.00
2023-03-29T01:07:18.145Z,0.00
2023-03-29T01:08:18.041Z,0.00
2023-03-29T01:09:18.060Z,0.00
2023-03-29T01:10:18.049Z,0.00
2023-03-29T01:11:18.064Z,0.00
2023-03-29T01:12:18.016Z,0.00
2023-03-29T01:13:17.988Z,0.00
2023-03-29T01:14:17.962Z,0.00
2023-03-29T01:15:17.953Z,0.00
2023-03-29T01:16:18.073Z,0.00
2023-03-29T01:17:17.947Z,0.00
2023-03-29T01:18:17.926Z,0.00
2023-03-29T01:19:17.949Z,0.00
2023-03-29T01:20:17.918Z,0.00
2023-03-29T01:21:17.937Z,0.00
2023-03-29T01:22:17.901Z,0.00
2023-03-29T01:23:17.963Z,0.00
2023-03-29T01:24:17.912Z,0.00
2023-03-29T01:25:17.878Z,0.00
2023-03-29T01:26:17.887Z,0.00
2023-03-29T01:27:17.879Z,0.00
2023-03-29T01:28:17.872Z,0.00
2023-03-29T01:29:17.836Z,0.00
2023-03-29T01:30:17.849Z,0.00
2023-03-29T01:31:17.821Z,0.00
2023-03-29T01:32:17.857Z,0.00
2023-03-29T01:33:17.840Z,0.00
2023-03-29T01:34:17.802Z,0.00
2023-03-29T01:35:17.779Z,0.00
2023-03-29T01:36:17.880Z,0.00
2023-03-29T01:37:17.814Z,0.00
2023-03-29T01:38:17.740Z,0.00
2023-03-29T01:39:17.721Z,0.00
2023-03-29T01:40:17.768Z,0.00
2023-03-29T01:41:17.729Z,0.00
2023-03-29T01:42:17.704Z,0.00
2023-03-29T01:43:17.704Z,0.00
2023-03-29T01:44:17.697Z,0.00
2023-03-29T01:45:17.687Z,0.00
2023-03-29T01:46:17.770Z,0.00
2023-03-29T01:47:17.644Z,0.00
2023-03-29T01:48:17.672Z,0.00
2023-03-29T01:49:17.638Z,0.00
2023-03-29T01:50:17.697Z,0.00
2023-03-29T01:51:17.662Z,0.00
2023-03-29T01:52:17.673Z,0.00
2023-03-29T01:53:17.593Z,0.00
2023-03-29T01:54:17.617Z,0.00
2023-03-29T01:55:17.587Z,0.00
2023-03-29T01:56:17.603Z,0.00
2023-03-29T01:57:17.622Z,0.00
2023-03-29T01:58:17.535Z,0.00
2023-03-29T01:59:17.552Z,0.00
2023-03-29T02:00:17.583Z,0.00
2023-03-29T02:01:17.648Z,0.00
2023-03-29T02:02:17.581Z,0.00
2023-03-29T02:03:17.688Z,0.00
2023-03-29T02:04:17.550Z,0.00
2023-03-29T02:05:17.479Z,0.00
2023-03-29T02:06:17.479Z,0.00
2023-03-29T02:07:17.468Z,0.00
2023-03-29T02:08:17.491Z,0.00
2023-03-29T02:09:17.478Z,0.00
2023-03-29T02:10:49.353Z,0.00
2023-03-29T02:11:17.435Z,0.00
2023-03-29T02:12:17.422Z,0.00
2023-03-29T02:13:17.425Z,0.00
2023-03-29T02:14:17.408Z,0.00
2023-03-29T02:15:17.393Z,0.00
2023-03-29T02:16:17.414Z,0.00
2023-03-29T02:17:17.389Z,0.00
2023-03-29T02:18:17.376Z,0.00
2023-03-29T02:19:17.388Z,0.00
2023-03-29T02:20:17.415Z,0.00
2023-03-29T02:21:17.461Z,0.00
2023-03-29T02:22:17.361Z,0.00
2023-03-29T02:23:17.298Z,0.00
2023-03-29T02:24:17.309Z,0.00
2023-03-29T02:25:17.302Z,0.00
2023-03-29T02:26:17.339Z,0.00
2023-03-29T02:27:17.303Z,0.00
2023-03-29T02:28:17.291Z,0.00
2023-03-29T02:29:17.284Z,0.00
2023-03-29T02:30:17.236Z,0.00
2023-03-29T02:31:17.252Z,0.00
2023-03-29T02:32:17.238Z,0.00
2023-03-29T02:33:17.243Z,0.00
2023-03-29T02:34:17.223Z,0.00
2023-03-29T02:35:17.225Z,0.00
2023-03-29T02:36:17.219Z,0.00
2023-03-29T02:37:17.177Z,0.00
2023-03-29T02:38:17.156Z,0.00
2023-03-29T02:39:17.156Z,0.00
2023-03-29T02:40:17.173Z,0.00
2023-03-29T02:41:17.117Z,0.00
2023-03-29T02:42:17.205Z,0.00
2023-03-29T02:43:17.129Z,0.00
2023-03-29T02:44:17.141Z,0.00
2023-03-29T02:45:17.198Z,0.00
2023-03-29T02:46:17.229Z,0.00
2023-03-29T02:47:17.172Z,0.00
2023-03-29T02:48:17.236Z,0.00
2023-03-29T02:49:18.086Z,0.00
2023-03-29T02:50:17.137Z,0.00
2023-03-29T02:51:19.779Z,0.00
2023-03-29T02:52:18.085Z,0.00
2023-03-29T02:53:17.029Z,0.00
2023-03-29T02:54:17.032Z,0.00
2023-03-29T02:55:17.107Z,0.00
2023-03-29T02:56:16.976Z,0.00
2023-03-29T02:57:16.997Z,0.00
2023-03-29T02:58:16.975Z,0.00
2023-03-29T02:59:16.977Z,0.00
2023-03-29T03:00:16.974Z,0.00
2023-03-29T03:01:16.945Z,0.00
2023-03-29T03:02:16.982Z,0.00
2023-03-29T03:03:17.066Z,0.00
2023-03-29T03:04:16.887Z,0.00
2023-03-29T03:05:16.935Z,0.00
2023-03-29T03:06:16.914Z,0.00
2023-03-29T03:07:16.887Z,0.00
2023-03-29T03:08:16.881Z,0.00
2023-03-29T03:09:16.942Z,0.00
2023-03-29T03:10:16.846Z,0.00
2023-03-29T03:11:16.831Z,0.00
2023-03-29T03:12:16.912Z,0.00
2023-03-29T03:13:16.818Z,0.00
2023-03-29T03:14:16.835Z,0.00
2023-03-29T03:15:16.802Z,0.00
2023-03-29T03:16:16.831Z,0.00
2023-03-29T03:17:16.791Z,0.00
2023-03-29T03:18:16.867Z,0.00
2023-03-29T03:19:16.819Z,0.00
2023-03-29T03:20:16.790Z,0.00
2023-03-29T03:21:16.726Z,0.00
2023-03-29T03:22:16.729Z,0.00
2023-03-29T03:23:16.739Z,0.00
2023-03-29T03:24:16.703Z,0.00
2023-03-29T03:25:16.743Z,0.00
2023-03-29T03:26:16.740Z,0.00
2023-03-29T03:27:16.716Z,0.00
2023-03-29T03:28:16.672Z,0.00
2023-03-29T03:29:16.697Z,0.00
2023-03-29T03:30:16.663Z,0.00
2023-03-29T03:31:16.712Z,0.00
2023-03-29T03:32:16.663Z,0.00
2023-03-29T03:33:16.606Z,0.00
2023-03-29T03:34:16.624Z,0.00
2023-03-29T03:35:16.608Z,0.00
2023-03-29T03:36:16.595Z,0.00
2023-03-29T03:37:16.620Z,0.00
2023-03-29T03:38:16.596Z,0.00
2023-03-29T03:39:16.577Z,0.00
2023-03-29T03:40:16.571Z,0.00
2023-03-29T03:41:16.562Z,0.00
2023-03-29T03:42:17.567Z,0.00
2023-03-29T03:43:16.516Z,0.00
2023-03-29T03:44:16.546Z,0.00
2023-03-29T03:45:16.566Z,0.00
2023-03-29T03:46:16.575Z,0.00
2023-03-29T03:47:16.521Z,0.00
2023-03-29T03:48:16.515Z,0.00
2023-03-29T03:49:16.497Z,0.00
2023-03-29T03:50:16.485Z,0.00
2023-03-29T03:51:16.483Z,0.00
2023-03-29T03:52:16.445Z,0.00
2023-03-29T03:53:16.472Z,0.00
2023-03-29T03:54:16.433Z,0.00
2023-03-29T03:55:17.424Z,0.00
2023-03-29T03:56:16.429Z,0.00
2023-03-29T03:57:16.423Z,0.00
2023-03-29T03:58:16.472Z,0.00
2023-03-29T03:59:16.431Z,0.00
2023-03-29T04:00:16.389Z,0.00
2023-03-29T04:01:16.355Z,0.00
2023-03-29T04:02:16.438Z,0.00
2023-03-29T04:03:16.473Z,0.00
2023-03-29T04:04:16.430Z,0.00
2023-03-29T04:05:16.398Z,0.00
2023-03-29T04:06:16.350Z,0.00
2023-03-29T04:07:16.297Z,0.00
2023-03-29T04:08:16.314Z,0.00
2023-03-29T04:09:16.278Z,0.00
2023-03-29T04:10:16.269Z,0.00
2023-03-29T04:11:16.268Z,0.00
2023-03-29T04:12:16.270Z,0.00
2023-03-29T04:13:16.235Z,0.00
2023-03-29T04:14:16.229Z,0.00
2023-03-29T04:15:16.220Z,0.00
2023-03-29T04:16:16.342Z,0.00
2023-03-29T04:17:16.184Z,0.00
2023-03-29T04:18:16.330Z,0.00
2023-03-29T04:19:16.174Z,0.00
2023-03-29T04:20:16.242Z,0.00
2023-03-29T04:21:17.012Z,0.00
2023-03-29T04:22:16.190Z,0.00
2023-03-29T04:23:16.172Z,0.00
2023-03-29T04:24:16.156Z,0.00
2023-03-29T04:25:16.137Z,0.00
2023-03-29T04:26:16.158Z,0.00
2023-03-29T04:27:16.121Z,0.00
2023-03-29T04:28:16.105Z,0.00
2023-03-29T04:29:16.097Z,0.00
2023-03-29T04:30:16.092Z,0.00
2023-03-29T04:31:16.130Z,0.00
2023-03-29T04:32:16.049Z,0.00
2023-03-29T04:33:16.066Z,0.00
2023-03-29T04:34:16.043Z,0.00
2023-03-29T04:35:16.048Z,0.00
2023-03-29T04:36:16.155Z,0.00
2023-03-29T04:37:16.005Z,0.00
2023-03-29T04:38:16.007Z,0.00
2023-03-29T04:39:16.009Z,4.00
2023-03-29T04:40:16.003Z,4.00
2023-03-29T04:41:15.968Z,0.00
2023-03-29T04:42:15.967Z,4.00
2023-03-29T04:43:15.974Z,4.00
2023-03-29T04:44:16.030Z,4.00
2023-03-29T04:45:16.006Z,4.00
2023-03-29T04:46:16.126Z,4.00
2023-03-29T04:47:15.937Z,4.00
2023-03-29T04:48:16.009Z,8.00
2023-03-29T04:49:15.884Z,8.00
2023-03-29T04:50:15.952Z,12.00
2023-03-29T04:51:15.924Z,12.00
2023-03-29T04:52:15.873Z,16.00
2023-03-29T04:53:15.875Z,16.00
2023-03-29T04:54:15.970Z,20.00
2023-03-29T04:55:15.843Z,24.00
2023-03-29T04:56:15.827Z,28.00
2023-03-29T04:57:15.856Z,36.00
2023-03-29T04:58:15.845Z,40.00
2023-03-29T04:59:15.829Z,48.00
2023-03-29T05:00:15.943Z,52.00
2023-03-29T05:01:15.866Z,64.00
2023-03-29T05:02:15.795Z,76.00
2023-03-29T05:03:15.811Z,84.00
2023-03-29T05:04:15.814Z,100.00
2023-03-29T05:05:15.751Z,112.00
2023-03-29T05:06:15.724Z,124.00
2023-03-29T05:07:15.769Z,136.00
2023-03-29T05:08:15.709Z,148.00
2023-03-29T05:09:15.698Z,160.00
2023-03-29T05:10:15.683Z,168.00
2023-03-29T05:11:15.683Z,180.00
2023-03-29T05:12:15.677Z,196.00
2023-03-29T05:13:15.646Z,212.00
2023-03-29T05:14:15.670Z,228.00
2023-03-29T05:15:15.667Z,248.00
2023-03-29T05:16:15.694Z,264.00
2023-03-29T05:17:15.617Z,280.00
2023-03-29T05:18:15.668Z,292.00
2023-03-29T05:19:15.639Z,304.00
2023-03-29T05:20:15.624Z,316.00
2023-03-29T05:21:15.583Z,336.00
2023-03-29T05:22:15.587Z,360.00
2023-03-29T05:23:15.563Z,384.00
2023-03-29T05:24:15.556Z,412.00
2023-03-29T05:25:15.553Z,444.00
2023-03-29T05:26:15.567Z,484.00
2023-03-29T05:27:15.558Z,540.00
2023-03-29T05:28:15.702Z,592.00
2023-03-29T05:29:15.510Z,636.00
2023-03-29T05:30:15.526Z,676.00
2023-03-29T05:31:16.965Z,720.00
2023-03-29T05:32:16.503Z,756.00
2023-03-29T05:33:15.498Z,792.00
2023-03-29T05:34:15.459Z,840.00
2023-03-29T05:35:15.463Z,904.00
2023-03-29T05:36:15.607Z,972.00
2023-03-29T05:37:15.441Z,1032.00
2023-03-29T05:38:15.450Z,1088.00
2023-03-29T05:39:15.449Z,1136.00
2023-03-29T05:40:15.428Z,1212.00
2023-03-29T05:41:15.424Z,1272.00
2023-03-29T05:42:15.488Z,1360.00
2023-03-29T05:43:15.415Z,1464.00
2023-03-29T05:44:15.354Z,1600.00
2023-03-29T05:45:15.355Z,1772.00
2023-03-29T05:46:15.982Z,1952.00
2023-03-29T05:47:16.354Z,2164.00
2023-03-29T05:48:15.348Z,2376.00
2023-03-29T05:49:15.337Z,2580.00
2023-03-29T05:50:15.299Z,2700.00
2023-03-29T05:51:15.327Z,2712.00
2023-03-29T05:52:15.295Z,2684.00
2023-03-29T05:53:15.387Z,2612.00
2023-03-29T05:54:15.270Z,2700.00
2023-03-29T05:55:15.258Z,2860.00
2023-03-29T05:56:15.246Z,2956.00
2023-03-29T05:57:15.251Z,3088.00
2023-03-29T05:58:15.230Z,3184.00
2023-03-29T05:59:15.233Z,3232.00
2023-03-29T06:00:15.256Z,3292.00
2023-03-29T06:01:15.198Z,3540.00
2023-03-29T06:02:15.240Z,4064.00
2023-03-29T06:03:21.555Z,4876.00
2023-03-29T06:04:17.248Z,5516.00
2023-03-29T06:05:15.208Z,5504.00
2023-03-29T06:06:15.154Z,5416.00
2023-03-29T06:07:15.143Z,5864.00
2023-03-29T06:08:15.105Z,7712.00
2023-03-29T06:09:15.129Z,10904.00
2023-03-29T06:10:15.137Z,8764.00
2023-03-29T06:11:15.104Z,7052.00
2023-03-29T06:12:15.155Z,6996.00
2023-03-29T06:13:15.067Z,7064.00
2023-03-29T06:14:15.070Z,7296.00
2023-03-29T06:15:15.034Z,7680.00
2023-03-29T06:16:15.053Z,8560.00
2023-03-29T06:17:15.119Z,8500.00
2023-03-29T06:18:15.029Z,7796.00
2023-03-29T06:19:15.025Z,7608.00
2023-03-29T06:20:15.060Z,8228.00
2023-03-29T06:21:15.022Z,8688.00
2023-03-29T06:22:15.068Z,8796.00
2023-03-29T06:23:15.959Z,8244.00
2023-03-29T06:24:15.002Z,8316.00
2023-03-29T06:25:14.962Z,8500.00
2023-03-29T06:26:14.927Z,8220.00
2023-03-29T06:27:14.968Z,7536.00
2023-03-29T06:28:14.939Z,7068.00
2023-03-29T06:29:14.972Z,6780.00
2023-03-29T06:30:14.937Z,6752.00
2023-03-29T06:31:14.924Z,6532.00
2023-03-29T06:32:14.895Z,5532.00
2023-03-29T06:33:14.921Z,4832.00
2023-03-29T06:34:14.889Z,4124.00
2023-03-29T06:35:14.917Z,3684.00
2023-03-29T06:36:14.869Z,4264.00
2023-03-29T06:37:14.840Z,4512.00
2023-03-29T06:38:14.861Z,4616.00
2023-03-29T06:39:14.869Z,4588.00
2023-03-29T06:40:14.824Z,4928.00
2023-03-29T06:41:14.818Z,5100.00
2023-03-29T06:42:21.254Z,4968.00
2023-03-29T06:43:16.814Z,5204.00
2023-03-29T06:44:14.826Z,5420.00
2023-03-29T06:45:14.761Z,5580.00
2023-03-29T06:46:15.096Z,5668.00
2023-03-29T06:47:14.728Z,5688.00
2023-03-29T06:48:14.759Z,5844.00
2023-03-29T06:49:14.761Z,6240.00
2023-03-29T06:50:14.757Z,6448.00
2023-03-29T06:51:14.722Z,5948.00
2023-03-29T06:52:14.687Z,5684.00
2023-03-29T06:53:14.697Z,5692.00
2023-03-29T06:54:14.684Z,6128.00
2023-03-29T06:55:14.710Z,6752.00
2023-03-29T06:56:14.715Z,7152.00
2023-03-29T06:57:14.739Z,7196.00
2023-03-29T06:58:14.666Z,7028.00
2023-03-29T06:59:14.743Z,6824.00
2023-03-29T07:00:14.628Z,6732.00
2023-03-29T07:01:14.626Z,6516.00
2023-03-29T07:02:14.672Z,6480.00
2023-03-29T07:03:14.751Z,6472.00
2023-03-29T07:04:14.610Z,6468.00
2023-03-29T07:05:14.594Z,6576.00
2023-03-29T07:06:14.561Z,6764.00
2023-03-29T07:07:14.555Z,7172.00
2023-03-29T07:08:14.552Z,7556.00
2023-03-29T07:09:14.514Z,8032.00
2023-03-29T07:10:14.526Z,8516.00
2023-03-29T07:11:14.511Z,8976.00
2023-03-29T07:12:14.506Z,9484.00
2023-03-29T07:13:14.606Z,10040.00
2023-03-29T07:14:14.489Z,10544.00
2023-03-29T07:15:14.477Z,10904.00
2023-03-29T07:16:14.558Z,11436.00
2023-03-29T07:17:14.490Z,11076.00
2023-03-29T07:18:14.516Z,10944.00
2023-03-29T07:19:14.425Z,10964.00
2023-03-29T07:20:14.448Z,10808.00
2023-03-29T07:21:14.463Z,10484.00
2023-03-29T07:22:14.407Z,10796.00
2023-03-29T07:23:14.408Z,10832.00
2023-03-29T07:24:14.418Z,11084.00
2023-03-29T07:25:14.413Z,11200.00
2023-03-29T07:26:14.367Z,11596.00
2023-03-29T07:27:15.343Z,13496.00
2023-03-29T07:28:14.345Z,15868.00
2023-03-29T07:29:14.386Z,15120.00
2023-03-29T07:30:14.323Z,20000.00
2023-03-29T07:31:14.415Z,15236.00
2023-03-29T07:32:14.341Z,15140.00
2023-03-29T07:33:14.585Z,15560.00
2023-03-29T07:34:14.284Z,15908.00
2023-03-29T07:35:14.562Z,17088.00
2023-03-29T07:36:14.293Z,17856.00
2023-03-29T07:37:14.300Z,21280.00
2023-03-29T07:38:14.249Z,24768.00
2023-03-29T07:39:14.234Z,48032.00
2023-03-29T07:40:14.239Z,22080.00
2023-03-29T07:41:14.233Z,20064.00
2023-03-29T07:42:14.202Z,18720.00
2023-03-29T07:43:14.269Z,19904.00
2023-03-29T07:44:14.199Z,21728.00
2023-03-29T07:45:14.168Z,18976.00
2023-03-29T07:46:14.278Z,18336.00
2023-03-29T07:47:14.239Z,18592.00
2023-03-29T07:48:14.236Z,18464.00
2023-03-29T07:49:14.197Z,18528.00
2023-03-29T07:50:14.105Z,18752.00
2023-03-29T07:51:14.104Z,18400.00
2023-03-29T07:52:14.169Z,18336.00
2023-03-29T07:53:14.100Z,18240.00
2023-03-29T07:54:14.105Z,17888.00
2023-03-29T07:55:14.076Z,17696.00
2023-03-29T07:56:14.087Z,17600.00
2023-03-29T07:57:14.071Z,18176.00
2023-03-29T07:58:14.075Z,18272.00
2023-03-29T07:59:14.041Z,17856.00
2023-03-29T08:00:14.185Z,17440.00
2023-03-29T08:01:16.401Z,17152.00
2023-03-29T08:02:14.977Z,16896.00
2023-03-29T08:03:14.073Z,16928.00
2023-03-29T08:04:14.095Z,17504.00
2023-03-29T08:05:14.012Z,18336.00
2023-03-29T08:06:13.978Z,19264.00
2023-03-29T08:07:15.284Z,19616.00
2023-03-29T08:08:13.976Z,19328.00
2023-03-29T08:09:13.942Z,19008.00
2023-03-29T08:10:45.848Z,18656.00
2023-03-29T08:11:13.979Z,18432.00
2023-03-29T08:12:14.024Z,18240.00
2023-03-29T08:13:13.906Z,18976.00
2023-03-29T08:14:13.949Z,18688.00
2023-03-29T08:15:13.865Z,17344.00
2023-03-29T08:16:13.891Z,16704.00
2023-03-29T08:17:13.901Z,16960.00
2023-03-29T08:18:13.889Z,17312.00
2023-03-29T08:19:13.921Z,18688.00
2023-03-29T08:20:13.838Z,22144.00
2023-03-29T08:21:13.843Z,21312.00
2023-03-29T08:22:13.804Z,20992.00
2023-03-29T08:23:13.827Z,25664.00
2023-03-29T08:24:13.788Z,30208.00
2023-03-29T08:25:13.783Z,18816.00
2023-03-29T08:26:13.781Z,21024.00
2023-03-29T08:27:13.738Z,18304.00
2023-03-29T08:28:13.764Z,19968.00
2023-03-29T08:29:13.757Z,16640.00
2023-03-29T08:30:13.731Z,16304.00
2023-03-29T08:31:13.771Z,17216.00
2023-03-29T08:32:13.810Z,16832.00
2023-03-29T08:33:13.753Z,17152.00
2023-03-29T08:34:13.789Z,18432.00
2023-03-29T08:35:13.692Z,20032.00
2023-03-29T08:36:13.745Z,21728.00
2023-03-29T08:37:13.744Z,19680.00
2023-03-29T08:38:13.662Z,18144.00
2023-03-29T08:39:13.666Z,15848.00
2023-03-29T08:40:13.649Z,14056.00
2023-03-29T08:41:13.591Z,14144.00
2023-03-29T08:42:13.621Z,17632.00
2023-03-29T08:43:13.654Z,21984.00
2023-03-29T08:44:13.650Z,21248.00
2023-03-29T08:45:13.570Z,17344.00
2023-03-29T08:46:13.580Z,13572.00
2023-03-29T08:47:13.585Z,14100.00
2023-03-29T08:48:13.606Z,16000.00
2023-03-29T08:49:13.565Z,16452.00
2023-03-29T08:50:13.551Z,15644.00
2023-03-29T08:51:13.538Z,15136.00
2023-03-29T08:52:13.615Z,14528.00
2023-03-29T08:53:13.499Z,13560.00
2023-03-29T08:54:13.474Z,12568.00
2023-03-29T08:55:13.547Z,11900.00
2023-03-29T08:56:13.488Z,11976.00
2023-03-29T08:57:13.590Z,12116.00
2023-03-29T08:58:13.503Z,11584.00
2023-03-29T08:59:13.449Z,11856.00
2023-03-29T09:00:13.419Z,12176.00
2023-03-29T09:01:13.420Z,12588.00
2023-03-29T09:02:13.503Z,13492.00
2023-03-29T09:03:13.611Z,14020.00
2023-03-29T09:04:13.501Z,25600.00
2023-03-29T09:05:13.449Z,12448.00
2023-03-29T09:06:13.372Z,10992.00
2023-03-29T09:07:13.415Z,12808.00
2023-03-29T09:08:13.358Z,12884.00
2023-03-29T09:09:13.338Z,13632.00
2023-03-29T09:10:13.345Z,14888.00
2023-03-29T09:11:13.346Z,16076.00
2023-03-29T09:12:13.297Z,16504.00
2023-03-29T09:13:14.414Z,15944.00
2023-03-29T09:14:13.340Z,15840.00
2023-03-29T09:15:13.297Z,16928.00
2023-03-29T09:16:13.404Z,17408.00
2023-03-29T09:17:13.267Z,17568.00
2023-03-29T09:18:13.363Z,16928.00
2023-03-29T09:19:13.254Z,15396.00
2023-03-29T09:20:13.221Z,13932.00
2023-03-29T09:21:13.244Z,12656.00
2023-03-29T09:22:13.277Z,12132.00
2023-03-29T09:23:13.212Z,12088.00
2023-03-29T09:24:13.176Z,11744.00
2023-03-29T09:25:13.180Z,11512.00
2023-03-29T09:26:13.277Z,11212.00
2023-03-29T09:27:13.162Z,11008.00
2023-03-29T09:28:13.167Z,10856.00
2023-03-29T09:29:13.191Z,10604.00
2023-03-29T09:30:13.188Z,10312.00
2023-03-29T09:31:13.208Z,10108.00
2023-03-29T09:32:13.164Z,10108.00
2023-03-29T09:33:13.155Z,10588.00
2023-03-29T09:34:14.437Z,10684.00
2023-03-29T09:35:13.088Z,10488.00
2023-03-29T09:36:13.166Z,10396.00
2023-03-29T09:37:13.111Z,10472.00
2023-03-29T09:38:13.066Z,10844.00
2023-03-29T09:39:13.043Z,11340.00
2023-03-29T09:40:13.035Z,11580.00
2023-03-29T09:41:13.015Z,11764.00
2023-03-29T09:42:12.999Z,11756.00
2023-03-29T09:43:13.051Z,11788.00
2023-03-29T09:44:24.230Z,11880.00
2023-03-29T09:45:15.030Z,11952.00
2023-03-29T09:46:13.058Z,11948.00
2023-03-29T09:47:13.009Z,11932.00
2023-03-29T09:48:13.001Z,11784.00
2023-03-29T09:49:14.031Z,11240.00
2023-03-29T09:50:23.473Z,11744.00
2023-03-29T09:51:13.922Z,11664.00
2023-03-29T09:52:12.973Z,11424.00
2023-03-29T09:53:12.951Z,11200.00
2023-03-29T09:54:12.895Z,11008.00
2023-03-29T09:55:12.898Z,10988.00
2023-03-29T09:56:12.926Z,10736.00
2023-03-29T09:57:12.895Z,10396.00
2023-03-29T09:58:12.847Z,10156.00
2023-03-29T09:59:12.893Z,10132.00
2023-03-29T10:00:12.843Z,10516.00
2023-03-29T10:01:12.862Z,11008.00
2023-03-29T10:02:12.838Z,10964.00
2023-03-29T10:03:12.850Z,10736.00
2023-03-29T10:04:12.810Z,10924.00
2023-03-29T10:05:12.823Z,10984.00
2023-03-29T10:06:12.788Z,11100.00
2023-03-29T10:07:12.773Z,11480.00
2023-03-29T10:08:12.772Z,11860.00
2023-03-29T10:09:12.740Z,12372.00
2023-03-29T10:10:12.746Z,13000.00
2023-03-29T10:11:12.736Z,13640.00
2023-03-29T10:12:12.732Z,13984.00
2023-03-29T10:13:12.711Z,13868.00
2023-03-29T10:14:12.731Z,13700.00
2023-03-29T10:15:23.237Z,13856.00
2023-03-29T10:16:14.769Z,13928.00
2023-03-29T10:17:12.696Z,13632.00
2023-03-29T10:18:12.700Z,13216.00
2023-03-29T10:19:12.658Z,12900.00
2023-03-29T10:20:12.661Z,12596.00
2023-03-29T10:21:12.671Z,12432.00
2023-03-29T10:22:12.664Z,12552.00
2023-03-29T10:23:12.636Z,12652.00
2023-03-29T10:24:12.639Z,12440.00
2023-03-29T10:25:12.580Z,12196.00
2023-03-29T10:26:12.607Z,11872.00
2023-03-29T10:27:12.588Z,11432.00
2023-03-29T10:28:12.554Z,11260.00
2023-03-29T10:29:12.601Z,11164.00
2023-03-29T10:30:12.555Z,11440.00
2023-03-29T10:31:12.558Z,11772.00
2023-03-29T10:32:12.603Z,11912.00
2023-03-29T10:33:12.573Z,12104.00
2023-03-29T10:34:12.484Z,12148.00
2023-03-29T10:35:12.519Z,11804.00
2023-03-29T10:36:12.510Z,11276.00
2023-03-29T10:37:12.562Z,10852.00
2023-03-29T10:38:12.482Z,10976.00
2023-03-29T10:39:12.484Z,11128.00
2023-03-29T10:40:12.456Z,10788.00
2023-03-29T10:41:12.478Z,10972.00
2023-03-29T10:42:12.449Z,11968.00
2023-03-29T10:43:12.521Z,12676.00
2023-03-29T10:44:12.415Z,13104.00
2023-03-29T10:45:12.393Z,13016.00
2023-03-29T10:46:12.406Z,12816.00
2023-03-29T10:47:12.424Z,12856.00
2023-03-29T10:48:12.368Z,12600.00
2023-03-29T10:49:12.420Z,12204.00
2023-03-29T10:50:12.347Z,12048.00
2023-03-29T10:51:12.355Z,11564.00
2023-03-29T10:52:12.340Z,10924.00
2023-03-29T10:53:12.410Z,10784.00
2023-03-29T10:54:12.344Z,10980.00
2023-03-29T10:55:12.316Z,10824.00
2023-03-29T10:56:12.435Z,10640.00
2023-03-29T10:57:12.330Z,10544.00
2023-03-29T10:58:12.269Z,10524.00
2023-03-29T10:59:12.245Z,10796.00
2023-03-29T11:00:12.340Z,10752.00
2023-03-29T11:01:12.246Z,10476.00
2023-03-29T11:02:12.271Z,10664.00
2023-03-29T11:03:14.340Z,10464.00
2023-03-29T11:04:12.211Z,10356.00
2023-03-29T11:05:12.200Z,10556.00
2023-03-29T11:06:12.208Z,10844.00
2023-03-29T11:07:12.183Z,11016.00
2023-03-29T11:08:12.150Z,11248.00
2023-03-29T11:09:12.184Z,11440.00
2023-03-29T11:10:12.211Z,11156.00
2023-03-29T11:11:13.174Z,10632.00
2023-03-29T11:12:16.170Z,10268.00
2023-03-29T11:13:13.104Z,10080.00
2023-03-29T11:14:12.113Z,9784.00
2023-03-29T11:15:12.147Z,9388.00
2023-03-29T11:16:12.146Z,9144.00
2023-03-29T11:17:12.057Z,9124.00
2023-03-29T11:18:12.129Z,10004.00
2023-03-29T11:19:12.080Z,10220.00
2023-03-29T11:20:12.125Z,10044.00
2023-03-29T11:21:12.055Z,10132.00
2023-03-29T11:22:12.062Z,9676.00
2023-03-29T11:23:12.032Z,9256.00
2023-03-29T11:24:12.008Z,9084.00
2023-03-29T11:25:12.043Z,9500.00
2023-03-29T11:26:11.991Z,10612.00
2023-03-29T11:27:12.000Z,11248.00
2023-03-29T11:28:12.005Z,12624.00
2023-03-29T11:29:11.956Z,13548.00
2023-03-29T11:30:12.065Z,13800.00
2023-03-29T11:31:12.075Z,12936.00
2023-03-29T11:32:11.936Z,12332.00
2023-03-29T11:33:11.918Z,12048.00
2023-03-29T11:34:11.981Z,11728.00
2023-03-29T11:35:11.919Z,11552.00
2023-03-29T11:36:11.938Z,11244.00
2023-03-29T11:37:11.879Z,11016.00
2023-03-29T11:38:11.852Z,10656.00
2023-03-29T11:39:11.988Z,11140.00
2023-03-29T11:40:12.074Z,12328.00
2023-03-29T11:41:11.847Z,12620.00
2023-03-29T11:42:11.839Z,13024.00
2023-03-29T11:43:11.884Z,13172.00
2023-03-29T11:44:11.808Z,13776.00
2023-03-29T11:45:11.906Z,13640.00
2023-03-29T11:46:11.804Z,12996.00
2023-03-29T11:47:11.814Z,12836.00
2023-03-29T11:48:11.843Z,13028.00
2023-03-29T11:49:11.775Z,13484.00
2023-03-29T11:50:11.767Z,12664.00
2023-03-29T11:51:11.777Z,11680.00
2023-03-29T11:52:11.765Z,11620.00
2023-03-29T11:53:11.767Z,11076.00
2023-03-29T11:54:11.698Z,11192.00
2023-03-29T11:55:11.729Z,12140.00
2023-03-29T11:56:11.706Z,12856.00
2023-03-29T11:57:11.741Z,12408.00
2023-03-29T11:58:11.703Z,11436.00
2023-03-29T11:59:11.734Z,10916.00
2023-03-29T12:00:11.698Z,10168.00
2023-03-29T12:01:11.676Z,9920.00
2023-03-29T12:02:11.678Z,9896.00
2023-03-29T12:03:11.694Z,9760.00
2023-03-29T12:04:11.714Z,9596.00
2023-03-29T12:05:11.678Z,9556.00
2023-03-29T12:06:11.678Z,9320.00
2023-03-29T12:07:11.601Z,9344.00
2023-03-29T12:08:11.587Z,9432.00
2023-03-29T12:09:14.238Z,9716.00
2023-03-29T12:10:11.607Z,10408.00
2023-03-29T12:11:11.542Z,11276.00
2023-03-29T12:12:11.598Z,12056.00
2023-03-29T12:13:11.526Z,12632.00
2023-03-29T12:14:11.597Z,12864.00
2023-03-29T12:15:11.550Z,12984.00
2023-03-29T12:16:11.562Z,12744.00
2023-03-29T12:17:11.550Z,12052.00
2023-03-29T12:18:11.543Z,11488.00
2023-03-29T12:19:11.506Z,12120.00
2023-03-29T12:20:11.546Z,12760.00
2023-03-29T12:21:11.485Z,12288.00
2023-03-29T12:22:11.486Z,11192.00
2023-03-29T12:23:11.499Z,10268.00
2023-03-29T12:24:11.450Z,9492.00
2023-03-29T12:25:11.485Z,9240.00